createdAt,value
2023-04-29T00:02:00.182Z,100.00
2023-04-29T00:04:27.368Z,100.00
2023-04-29T00:06:54.819Z,100.00
2023-04-29T00:09:22.140Z,100.00
2023-04-29T00:11:50.502Z,100.00
2023-04-29T00:14:17.757Z,100.00
2023-04-29T00:16:47.212Z,100.00
2023-04-29T00:19:14.113Z,100.00
2023-04-29T00:21:46.852Z,100.00
2023-04-29T00:24:14.112Z,100.00
2023-04-29T00:26:41.410Z,100.00
2023-04-29T00:29:08.473Z,100.00
2023-04-29T00:31:37.462Z,100.00
2023-04-29T00:34:04.570Z,100.00
2023-04-29T00:36:32.552Z,100.00
2023-04-29T00:38:59.705Z,100.00
2023-04-29T00:41:27.216Z,100.00
2023-04-29T00:43:54.191Z,100.00
2023-04-29T00:46:21.394Z,100.00
2023-04-29T00:48:48.289Z,100.00
2023-04-29T00:51:17.150Z,100.00
2023-04-29T00:53:44.486Z,100.00
2023-04-29T00:56:11.889Z,100.00
2023-04-29T00:58:39.202Z,100.00
2023-04-29T01:01:06.616Z,100.00
2023-04-29T01:03:34.409Z,100.00
2023-04-29T01:06:09.161Z,100.00
2023-04-29T01:08:48.804Z,100.00
2023-04-29T01:11:16.882Z,100.00
2023-04-29T01:13:49.882Z,100.00
2023-04-29T01:16:46.270Z,100.00
2023-04-29T01:19:21.221Z,100.00
2023-04-29T01:21:51.265Z,100.00
2023-04-29T01:24:18.349Z,100.00
2023-04-29T01:26:59.631Z,100.00
2023-04-29T01:29:51.343Z,100.00
2023-04-29T01:32:24.382Z,100.00
2023-04-29T01:35:11.520Z,100.00
2023-04-29T01:37:49.658Z,100.00
2023-04-29T01:40:22.671Z,100.00
2023-04-29T01:43:11.780Z,100.00
2023-04-29T01:45:41.460Z,100.00
2023-04-29T01:48:12.704Z,100.00
2023-04-29T01:50:40.051Z,100.00
2023-04-29T01:53:11.907Z,100.00
2023-04-29T01:55:39.498Z,100.00
2023-04-29T01:58:22.046Z,100.00
2023-04-29T02:01:01.698Z,100.00
2023-04-29T02:03:32.265Z,100.00
2023-04-29T02:06:01.493Z,100.00
2023-04-29T02:08:29.221Z,100.00
2023-04-29T02:11:00.478Z,100.00
2023-04-29T02:13:45.913Z,100.00
2023-04-29T02:16:14.571Z,100.00
2023-04-29T02:18:53.626Z,100.00
2023-04-29T02:21:21.650Z,100.00
2023-04-29T02:23:48.851Z,100.00
2023-04-29T02:26:15.922Z,100.00
2023-04-29T02:28:43.126Z,100.00
2023-04-29T02:31:09.963Z,100.00
2023-04-29T02:33:37.266Z,100.00
2023-04-29T02:36:09.532Z,100.00
2023-04-29T02:38:36.645Z,100.00
2023-04-29T02:41:03.565Z,100.00
2023-04-29T02:43:31.398Z,100.00
2023-04-29T02:46:00.342Z,100.00
2023-04-29T02:48:27.760Z,100.00
2023-04-29T02:50:54.608Z,100.00
2023-04-29T02:53:21.945Z,100.00
2023-04-29T02:55:48.983Z,100.00
2023-04-29T02:58:16.301Z,100.00
2023-04-29T03:00:43.334Z,100.00
2023-04-29T03:03:10.990Z,100.00
2023-04-29T03:05:40.856Z,100.00
2023-04-29T03:08:10.367Z,100.00
2023-04-29T03:10:41.366Z,100.00
2023-04-29T03:13:09.145Z,100.00
2023-04-29T03:15:37.403Z,100.00
2023-04-29T03:18:05.173Z,100.00
2023-04-29T03:20:34.105Z,100.00
2023-04-29T03:23:04.010Z,100.00
2023-04-29T03:25:31.306Z,100.00
2023-04-29T03:27:58.696Z,100.00
2023-04-29T03:30:25.877Z,100.00
2023-04-29T03:32:57.596Z,100.00
2023-04-29T03:35:28.592Z,100.00
2023-04-29T03:38:14.136Z,100.00
2023-04-29T03:40:41.386Z,100.00
2023-04-29T03:43:09.506Z,100.00
2023-04-29T03:45:36.614Z,100.00
2023-04-29T03:48:05.559Z,100.00
2023-04-29T03:50:32.632Z,100.00
2023-04-29T03:52:59.756Z,100.00
2023-04-29T03:55:27.252Z,100.00
2023-04-29T03:57:56.845Z,100.00
2023-04-29T04:00:26.478Z,100.00
2023-04-29T04:02:56.258Z,100.00
2023-04-29T04:05:25.485Z,100.00
2023-04-29T04:08:04.704Z,100.00
2023-04-29T04:10:46.899Z,100.00
2023-04-29T04:13:36.836Z,100.00
2023-04-29T04:16:04.846Z,100.00
2023-04-29T04:18:32.062Z,100.00
2023-04-29T04:21:05.193Z,100.00
2023-04-29T04:23:32.354Z,100.00
2023-04-29T04:26:01.073Z,100.00
2023-04-29T04:29:00.961Z,100.00
2023-04-29T04:31:50.849Z,100.00
2023-04-29T04:34:20.453Z,100.00
2023-04-29T04:36:50.191Z,100.00
2023-04-29T04:39:17.410Z,100.00
2023-04-29T04:41:44.684Z,100.00
2023-04-29T04:44:12.346Z,100.00
2023-04-29T04:46:51.356Z,100.00
2023-04-29T04:49:32.279Z,100.00
2023-04-29T04:51:59.304Z,100.00
2023-04-29T04:54:26.942Z,100.00
2023-04-29T04:57:06.208Z,100.00
2023-04-29T04:59:34.337Z,100.00
2023-04-29T05:02:01.558Z,100.00
2023-04-29T05:04:29.930Z,100.00
2023-04-29T05:06:59.401Z,100.00
2023-04-29T05:09:32.114Z,100.00
2023-04-29T05:11:59.451Z,100.00
2023-04-29T05:14:28.530Z,100.00
2023-04-29T05:17:01.328Z,100.00
2023-04-29T05:19:28.645Z,100.00
2023-04-29T05:21:55.661Z,100.00
2023-04-29T05:24:23.729Z,100.00
2023-04-29T05:26:52.084Z,100.00
2023-04-29T05:29:21.008Z,100.00
2023-04-29T05:31:55.627Z,100.00
2023-04-29T05:34:22.904Z,100.00
2023-04-29T05:36:49.776Z,100.00
2023-04-29T05:39:17.704Z,100.00
2023-04-29T05:41:48.181Z,100.00
2023-04-29T05:44:19.904Z,100.00
2023-04-29T05:46:49.143Z,100.00
2023-04-29T05:49:18.956Z,100.00
2023-04-29T05:51:46.725Z,100.00
2023-04-29T05:54:14.299Z,100.00
2023-04-29T05:56:41.405Z,100.00
2023-04-29T05:59:09.756Z,100.00
2023-04-29T06:01:37.060Z,100.00
2023-04-29T06:04:05.371Z,100.00
2023-04-29T06:06:51.721Z,100.00
2023-04-29T06:09:28.190Z,100.00
2023-04-29T06:12:00.201Z,100.00
2023-04-29T06:14:27.372Z,100.00
2023-04-29T06:16:54.403Z,100.00
2023-04-29T06:19:21.852Z,100.00
2023-04-29T06:21:49.725Z,100.00
2023-04-29T06:24:17.005Z,100.00
2023-04-29T06:26:44.537Z,100.00
2023-04-29T06:29:12.514Z,100.00
2023-04-29T06:31:42.038Z,100.00
2023-04-29T06:34:09.782Z,100.00
2023-04-29T06:36:46.600Z,100.00
2023-04-29T06:39:35.106Z,100.00
2023-04-29T06:42:19.599Z,100.00
2023-04-29T06:45:06.600Z,100.00
2023-04-29T06:47:42.467Z,100.00
2023-04-29T06:50:14.110Z,100.00
2023-04-29T06:52:41.173Z,100.00
2023-04-29T06:55:11.286Z,100.00
2023-04-29T06:57:38.976Z,100.00
2023-04-29T07:00:06.956Z,100.00
2023-04-29T07:02:35.009Z,100.00
2023-04-29T07:05:06.566Z,100.00
2023-04-29T07:07:33.690Z,100.00
2023-04-29T07:10:03.296Z,100.00
2023-04-29T07:12:30.259Z,100.00
2023-04-29T07:14:59.973Z,100.00
2023-04-29T07:17:29.509Z,100.00
2023-04-29T07:19:57.293Z,100.00
2023-04-29T07:22:24.308Z,100.00
2023-04-29T07:24:55.568Z,100.00
2023-04-29T07:27:22.956Z,100.00
2023-04-29T07:29:50.297Z,100.00
2023-04-29T07:32:17.272Z,100.00
2023-04-29T07:34:48.853Z,100.00
2023-04-29T07:37:15.851Z,100.00
2023-04-29T07:39:45.582Z,100.00
2023-04-29T07:42:15.501Z,100.00
2023-04-29T07:44:45.664Z,100.00
2023-04-29T07:47:12.667Z,100.00
2023-04-29T07:49:41.754Z,100.00
2023-04-29T07:52:11.148Z,100.00
2023-04-29T07:54:38.478Z,100.00
2023-04-29T07:57:08.024Z,100.00
2023-04-29T07:59:35.282Z,100.00
2023-04-29T08:02:02.864Z,100.00
2023-04-29T08:04:31.025Z,100.00
2023-04-29T08:07:09.596Z,100.00
2023-04-29T08:09:37.054Z,100.00
2023-04-29T08:12:05.540Z,100.00
2023-04-29T08:14:32.954Z,100.00
2023-04-29T08:17:00.935Z,100.00
2023-04-29T08:19:28.289Z,100.00
2023-04-29T08:21:55.248Z,100.00
2023-04-29T08:24:22.834Z,100.00
2023-04-29T08:26:52.557Z,100.00
2023-04-29T08:29:22.845Z,100.00
2023-04-29T08:31:50.484Z,100.00
2023-04-29T08:34:21.597Z,100.00
2023-04-29T08:36:48.506Z,100.00
2023-04-29T08:39:18.149Z,100.00
2023-04-29T08:41:49.404Z,100.00
2023-04-29T08:44:18.889Z,100.00
2023-04-29T08:46:46.664Z,100.00
2023-04-29T08:49:14.632Z,100.00
2023-04-29T08:51:41.617Z,100.00
2023-04-29T08:54:09.144Z,100.00
2023-04-29T08:56:37.258Z,100.00
2023-04-29T08:59:04.994Z,100.00
2023-04-29T09:01:32.746Z,100.00
2023-04-29T09:04:08.792Z,100.00
2023-04-29T09:06:35.761Z,100.00
2023-04-29T09:09:06.198Z,100.00
2023-04-29T09:11:34.014Z,100.00
2023-04-29T09:14:08.228Z,100.00
2023-04-29T09:16:41.031Z,100.00
2023-04-29T09:19:08.434Z,100.00
2023-04-29T09:21:35.590Z,100.00
2023-04-29T09:24:03.569Z,100.00
2023-04-29T09:26:41.658Z,100.00
2023-04-29T09:29:11.853Z,100.00
2023-04-29T09:31:42.369Z,100.00
2023-04-29T09:34:12.009Z,100.00
2023-04-29T09:36:46.878Z,100.00
2023-04-29T09:39:18.024Z,100.00
2023-04-29T09:41:54.082Z,100.00
2023-04-29T09:44:24.741Z,100.00
2023-04-29T09:46:59.072Z,100.00
2023-04-29T09:49:27.517Z,100.00
2023-04-29T09:51:58.667Z,100.00
2023-04-29T09:54:29.420Z,100.00
2023-04-29T09:56:59.218Z,100.00
2023-04-29T09:59:26.985Z,100.00
2023-04-29T10:01:55.040Z,100.00
2023-04-29T10:04:23.356Z,100.00
2023-04-29T10:06:52.341Z,100.00
2023-04-29T10:09:20.344Z,100.00
2023-04-29T10:11:49.016Z,100.00
2023-04-29T10:14:17.329Z,100.00
2023-04-29T10:16:51.248Z,100.00
2023-04-29T10:19:47.837Z,84.82
2023-04-29T10:22:24.914Z,82.34
2023-04-29T10:24:54.370Z,78.99
2023-04-29T10:27:24.841Z,77.34
2023-04-29T10:29:53.303Z,76.65
2023-04-29T10:32:21.986Z,69.48
2023-04-29T10:34:51.192Z,72.01
2023-04-29T10:37:20.887Z,63.45
2023-04-29T10:39:52.512Z,66.71
2023-04-29T10:42:32.084Z,64.90
2023-04-29T10:45:21.536Z,74.52
2023-04-29T10:48:08.554Z,75.63
2023-04-29T10:50:35.878Z,89.52
2023-04-29T10:53:06.208Z,100.00
2023-04-29T10:55:36.535Z,100.00
2023-04-29T10:58:04.203Z,100.00
2023-04-29T11:00:38.005Z,100.00
2023-04-29T11:03:06.199Z,100.00
2023-04-29T11:05:34.783Z,100.00
2023-04-29T11:08:16.416Z,100.00
2023-04-29T11:10:44.077Z,100.00
2023-04-29T11:13:26.840Z,100.00
2023-04-29T11:16:03.763Z,100.00
2023-04-29T11:18:30.907Z,100.00
2023-04-29T11:21:09.700Z,100.00
2023-04-29T11:23:37.448Z,100.00
2023-04-29T11:26:08.094Z,100.00
2023-04-29T11:28:37.749Z,100.00
2023-04-29T11:31:07.471Z,100.00
2023-04-29T11:33:34.970Z,100.00
2023-04-29T11:36:01.943Z,100.00
2023-04-29T11:38:31.707Z,100.00
2023-04-29T11:40:59.552Z,100.00
2023-04-29T11:43:29.076Z,100.00
2023-04-29T11:45:58.121Z,100.00
2023-04-29T11:48:26.539Z,100.00
2023-04-29T11:50:55.240Z,100.00
2023-04-29T11:53:25.290Z,100.00
2023-04-29T11:55:55.892Z,100.00
2023-04-29T11:58:24.470Z,100.00
2023-04-29T12:00:53.904Z,100.00
2023-04-29T12:03:24.967Z,100.00
2023-04-29T12:05:51.934Z,100.00
2023-04-29T12:08:22.805Z,100.00
2023-04-29T12:10:50.265Z,100.00
2023-04-29T12:13:18.692Z,100.00
2023-04-29T12:15:47.694Z,100.00
2023-04-29T12:18:16.436Z,100.00
2023-04-29T12:20:43.858Z,100.00
2023-04-29T12:23:15.056Z,100.00
2023-04-29T12:25:42.821Z,100.00
2023-04-29T12:28:13.684Z,100.00
2023-04-29T12:30:40.768Z,100.00
2023-04-29T12:33:11.113Z,100.00
2023-04-29T12:35:38.930Z,100.00
2023-04-29T12:38:06.510Z,100.00
2023-04-29T12:40:34.284Z,100.00
2023-04-29T12:43:10.961Z,100.00
2023-04-29T12:45:38.700Z,100.00
2023-04-29T12:48:09.982Z,100.00
2023-04-29T12:50:44.372Z,100.00
2023-04-29T12:53:12.050Z,100.00
2023-04-29T12:55:38.919Z,100.00
2023-04-29T12:58:07.288Z,100.00
2023-04-29T13:00:35.341Z,100.00
2023-04-29T13:03:03.182Z,100.00
2023-04-29T13:05:30.280Z,100.00
2023-04-29T13:07:57.627Z,100.00
2023-04-29T13:10:24.544Z,100.00
2023-04-29T13:12:52.211Z,100.00
2023-04-29T13:15:19.159Z,100.00
2023-04-29T13:17:48.998Z,100.00
2023-04-29T13:20:15.986Z,100.00
2023-04-29T13:22:44.468Z,100.00
2023-04-29T13:25:12.443Z,100.00
2023-04-29T13:27:39.729Z,100.00
2023-04-29T13:30:06.885Z,100.00
2023-04-29T13:32:43.943Z,100.00
2023-04-29T13:35:16.244Z,100.00
2023-04-29T13:37:43.568Z,100.00
2023-04-29T13:40:19.786Z,100.00
2023-04-29T13:42:50.389Z,100.00
2023-04-29T13:45:23.690Z,100.00
2023-04-29T13:50:57.572Z,100.00
2023-04-29T14:03:13.278Z,100.00
2023-04-29T14:05:44.040Z,100.00
2023-04-29T14:08:11.448Z,100.00
2023-04-29T14:10:41.393Z,100.00
2023-04-29T14:13:11.220Z,100.00
2023-04-29T14:15:38.395Z,100.00
2023-04-29T14:18:09.625Z,100.00
2023-04-29T14:20:36.753Z,100.00
2023-04-29T14:23:04.115Z,100.00
2023-04-29T14:25:33.082Z,100.00
2023-04-29T14:28:01.120Z,100.00
2023-04-29T14:30:30.504Z,100.00
2023-04-29T14:32:57.829Z,100.00
2023-04-29T14:35:25.119Z,100.00
2023-04-29T14:37:52.676Z,100.00
2023-04-29T14:40:19.626Z,100.00
2023-04-29T14:42:46.829Z,100.00
2023-04-29T14:45:15.888Z,100.00
2023-04-29T14:47:43.314Z,100.00
2023-04-29T14:50:10.602Z,100.00
2023-04-29T14:52:41.077Z,100.00
2023-04-29T14:55:10.540Z,100.00
2023-04-29T14:57:38.113Z,100.00
2023-04-29T15:00:05.400Z,100.00
2023-04-29T15:02:32.761Z,100.00
2023-04-29T15:04:59.687Z,100.00
2023-04-29T15:07:26.956Z,100.00
2023-04-29T15:09:54.010Z,100.00
2023-04-29T15:12:22.332Z,100.00
2023-04-29T15:14:49.438Z,100.00
2023-04-29T15:17:16.679Z,100.00
2023-04-29T15:19:43.757Z,100.00
2023-04-29T15:22:11.019Z,100.00
2023-04-29T15:24:37.891Z,100.00
2023-04-29T15:27:05.361Z,100.00
2023-04-29T15:29:34.447Z,100.00
2023-04-29T15:32:01.856Z,100.00
2023-04-29T15:34:28.720Z,100.00
2023-04-29T15:36:56.400Z,100.00
2023-04-29T15:39:23.269Z,100.00
2023-04-29T15:41:50.516Z,100.00
2023-04-29T15:44:19.800Z,100.00
2023-04-29T15:46:47.059Z,100.00
2023-04-29T15:49:14.113Z,100.00
2023-04-29T15:51:41.461Z,100.00
2023-04-29T15:54:08.443Z,100.00
2023-04-29T15:56:36.516Z,100.00
2023-04-29T15:59:03.587Z,100.00
2023-04-29T16:01:31.207Z,100.00
2023-04-29T16:04:01.279Z,100.00
2023-04-29T16:06:28.615Z,100.00
2023-04-29T16:08:57.997Z,100.00
2023-04-29T16:11:25.278Z,100.00
2023-04-29T16:13:54.794Z,100.00
2023-04-29T16:16:23.336Z,100.00
2023-04-29T16:18:50.194Z,100.00
2023-04-29T16:21:17.692Z,100.00
2023-04-29T16:23:44.745Z,100.00
2023-04-29T16:26:12.136Z,100.00
2023-04-29T16:28:39.118Z,100.00
2023-04-29T16:31:06.517Z,100.00
2023-04-29T16:33:33.512Z,100.00
2023-04-29T16:36:00.735Z,100.00
2023-04-29T16:38:27.750Z,100.00
2023-04-29T16:40:55.075Z,100.00
2023-04-29T16:43:22.250Z,100.00
2023-04-29T16:45:51.106Z,100.00
2023-04-29T16:48:18.191Z,100.00
2023-04-29T16:50:45.383Z,100.00
2023-04-29T16:53:13.517Z,100.00
2023-04-29T16:55:40.859Z,100.00
2023-04-29T16:58:08.131Z,100.00
2023-04-29T17:00:35.389Z,100.00
2023-04-29T17:03:02.559Z,100.00
2023-04-29T17:05:30.260Z,100.00
2023-04-29T17:07:57.148Z,100.00
2023-04-29T17:10:24.950Z,100.00
2023-04-29T17:12:51.833Z,100.00
2023-04-29T17:15:18.983Z,100.00
2023-04-29T17:17:46.736Z,100.00
2023-04-29T17:20:14.113Z,100.00
2023-04-29T17:22:41.640Z,100.00
2023-04-29T17:25:09.377Z,100.00
2023-04-29T17:27:36.789Z,100.00
2023-04-29T17:30:06.531Z,100.00
2023-04-29T17:32:39.175Z,100.00
2023-04-29T17:35:07.333Z,100.00
2023-04-29T17:37:34.503Z,100.00
2023-04-29T17:40:01.741Z,100.00
2023-04-29T17:42:28.750Z,100.00
2023-04-29T17:44:56.360Z,100.00
2023-04-29T17:47:23.489Z,100.00
2023-04-29T17:49:52.220Z,100.00
2023-04-29T17:52:21.487Z,100.00
2023-04-29T17:54:51.490Z,100.00
2023-04-29T17:57:18.603Z,100.00
2023-04-29T17:59:47.124Z,100.00
2023-04-29T18:02:14.220Z,100.00
2023-04-29T18:04:41.996Z,100.00
2023-04-29T18:07:10.945Z,100.00
2023-04-29T18:09:38.611Z,100.00
2023-04-29T18:12:06.328Z,100.00
2023-04-29T18:14:33.749Z,100.00
2023-04-29T18:17:01.368Z,100.00
2023-04-29T18:19:28.623Z,100.00
2023-04-29T18:21:59.592Z,100.00
2023-04-29T18:24:28.627Z,100.00
2023-04-29T18:26:58.599Z,100.00
2023-04-29T18:29:28.823Z,100.00
2023-04-29T18:31:56.225Z,100.00
2023-04-29T18:34:23.800Z,100.00
2023-04-29T18:36:51.363Z,100.00
2023-04-29T18:39:18.693Z,100.00
2023-04-29T18:41:45.557Z,100.00
2023-04-29T18:44:12.713Z,100.00
2023-04-29T18:46:40.588Z,100.00
2023-04-29T18:49:08.738Z,100.00
2023-04-29T18:51:38.422Z,100.00
2023-04-29T18:54:06.242Z,100.00
2023-04-29T18:56:33.300Z,100.00
2023-04-29T18:59:00.904Z,100.00
2023-04-29T19:01:28.095Z,100.00
2023-04-29T19:03:55.619Z,100.00
2023-04-29T19:06:23.389Z,100.00
2023-04-29T19:08:51.846Z,100.00
2023-04-29T19:11:22.678Z,100.00
2023-04-29T19:13:52.624Z,100.00
2023-04-29T19:16:19.976Z,100.00
2023-04-29T19:18:51.321Z,100.00
2023-04-29T19:21:18.663Z,100.00
2023-04-29T19:23:46.392Z,100.00
2023-04-29T19:26:14.163Z,100.00
2023-04-29T19:28:44.694Z,100.00
2023-04-29T19:31:13.192Z,100.00
2023-04-29T19:33:41.006Z,100.00
2023-04-29T19:36:08.170Z,100.00
2023-04-29T19:38:35.428Z,100.00
2023-04-29T19:41:02.501Z,100.00
2023-04-29T19:43:29.996Z,100.00
2023-04-29T19:45:57.455Z,100.00
2023-04-29T19:48:25.335Z,100.00
2023-04-29T19:50:52.464Z,100.00
2023-04-29T19:53:20.312Z,100.00
2023-04-29T19:55:49.467Z,100.00
2023-04-29T19:58:18.021Z,100.00
2023-04-29T20:00:45.768Z,100.00
2023-04-29T20:03:16.125Z,100.00
2023-04-29T20:05:46.416Z,100.00
2023-04-29T20:08:13.879Z,100.00
2023-04-29T20:10:41.629Z,100.00
2023-04-29T20:13:08.961Z,100.00
2023-04-29T20:15:36.881Z,100.00
2023-04-29T20:18:04.437Z,100.00
2023-04-29T20:20:31.801Z,100.00
2023-04-29T20:23:00.420Z,100.00
2023-04-29T20:25:30.125Z,100.00
2023-04-29T20:27:57.695Z,100.00
2023-04-29T20:30:26.742Z,100.00
2023-04-29T20:32:54.387Z,100.00
2023-04-29T20:35:21.692Z,100.00
2023-04-29T20:37:49.002Z,100.00
2023-04-29T20:40:18.463Z,100.00
2023-04-29T20:42:45.624Z,100.00
2023-04-29T20:45:13.549Z,100.00
2023-04-29T20:47:41.273Z,100.00
2023-04-29T20:50:09.086Z,100.00
2023-04-29T20:52:36.702Z,100.00
2023-04-29T20:55:03.941Z,100.00
2023-04-29T20:57:32.715Z,100.00
2023-04-29T20:59:59.662Z,100.00
2023-04-29T21:02:26.966Z,100.00
2023-04-29T21:04:56.245Z,100.00
2023-04-29T21:07:23.491Z,100.00
2023-04-29T21:09:54.190Z,100.00
2023-04-29T21:12:22.350Z,100.00
2023-04-29T21:14:49.155Z,100.00
2023-04-29T21:17:16.364Z,100.00
2023-04-29T21:19:45.489Z,100.00
2023-04-29T21:22:12.777Z,100.00
2023-04-29T21:24:39.716Z,100.00
2023-04-29T21:27:09.176Z,100.00
2023-04-29T21:29:40.940Z,100.00
2023-04-29T21:32:08.449Z,100.00
2023-04-29T21:34:35.789Z,100.00
2023-04-29T21:37:02.947Z,100.00
2023-04-29T21:39:31.497Z,100.00
2023-04-29T21:42:03.069Z,100.00
2023-04-29T21:44:32.426Z,100.00
2023-04-29T21:47:01.148Z,100.00
2023-04-29T21:49:28.313Z,100.00
2023-04-29T21:51:55.825Z,100.00
2023-04-29T21:54:22.991Z,100.00
2023-04-29T21:56:50.472Z,100.00
2023-04-29T21:59:17.311Z,100.00
2023-04-29T22:01:47.159Z,100.00
2023-04-29T22:04:15.303Z,100.00
2023-04-29T22:06:42.920Z,100.00
2023-04-29T22:09:10.361Z,100.00
2023-04-29T22:11:37.805Z,100.00
2023-04-29T22:14:04.916Z,100.00
2023-04-29T22:16:32.151Z,100.00
2023-04-29T22:19:01.463Z,100.00
2023-04-29T22:21:28.839Z,100.00
2023-04-29T22:23:55.935Z,100.00
2023-04-29T22:26:25.597Z,100.00
2023-04-29T22:28:52.955Z,100.00
2023-04-29T22:31:20.126Z,100.00
2023-04-29T22:33:46.978Z,100.00
2023-04-29T22:36:14.176Z,100.00
2023-04-29T22:38:41.070Z,100.00
2023-04-29T22:41:09.713Z,100.00
2023-04-29T22:43:39.057Z,100.00
2023-04-29T22:46:06.681Z,100.00
2023-04-29T22:48:33.615Z,100.00
2023-04-29T22:51:01.117Z,100.00
2023-04-29T22:53:28.188Z,100.00
2023-04-29T22:55:56.516Z,100.00
2023-04-29T22:58:26.445Z,100.00
2023-04-29T23:00:54.355Z,100.00
2023-04-29T23:03:21.320Z,100.00
2023-04-29T23:05:48.693Z,100.00
2023-04-29T23:08:15.843Z,100.00
2023-04-29T23:10:49.593Z,100.00
2023-04-29T23:13:16.965Z,100.00
2023-04-29T23:15:44.493Z,100.00
2023-04-29T23:18:11.582Z,100.00
2023-04-29T23:20:43.510Z,100.00
2023-04-29T23:23:10.456Z,100.00
2023-04-29T23:25:39.980Z,100.00
2023-04-29T23:28:09.509Z,100.00
2023-04-29T23:30:39.093Z,100.00
2023-04-29T23:33:05.932Z,100.00
2023-04-29T23:35:33.191Z,100.00
2023-04-29T23:38:00.088Z,100.00
2023-04-29T23:40:27.246Z,100.00
2023-04-29T23:42:54.150Z,100.00
2023-04-29T23:45:21.384Z,100.00
2023-04-29T23:47:48.396Z,100.00
2023-04-29T23:50:15.588Z,100.00
2023-04-29T23:52:42.558Z,100.00
2023-04-29T23:55:10.059Z,100.00
2023-04-29T23:57:39.250Z,100.00
